sensor_id;sensor_type;location;lat;lon;timestamp;pressure;altitude;pressure_sealevel;temperature;humidity
36454;BME280;22478;51.740;-1.314;2024-03-02T00:01:18;97703.51;;;-3.52;100.00
36454;BME280;22478;51.740;-1.314;2024-03-02T00:03:45;97705.33;;;-4.19;100.00
36454;BME280;22478;51.740;-1.314;2024-03-02T00:06:12;97693.79;;;-3.26;100.00
36454;BME280;22478;51.740;-1.314;2024-03-02T00:08:40;97695.82;;;-2.98;100.00
36454;BME280;22478;51.740;-1.314;2024-03-02T00:11:07;97702.13;;;-4.12;100.00
36454;BME280;22478;51.740;-1.314;2024-03-02T00:13:35;97699.76;;;-3.29;100.00
36454;BME280;22478;51.740;-1.314;2024-03-02T00:16:03;97703.20;;;-3.78;100.00
36454;BME280;22478;51.740;-1.314;2024-03-02T00:18:32;97696.13;;;-4.01;100.00
36454;BME280;22478;51.740;-1.314;2024-03-02T00:21:01;97692.39;;;-1.74;100.00
36454;BME280;22478;51.740;-1.314;2024-03-02T00:23:30;97699.74;;;-3.40;100.00
36454;BME280;22478;51.740;-1.314;2024-03-02T00:25:58;97706.02;;;-2.89;100.00
36454;BME280;22478;51.740;-1.314;2024-03-02T00:28:27;97709.71;;;-2.45;100.00
36454;BME280;22478;51.740;-1.314;2024-03-02T00:30:58;97707.18;;;-2.45;100.00
36454;BME280;22478;51.740;-1.314;2024-03-02T00:33:27;97700.74;;;-2.32;100.00
36454;BME280;22478;51.740;-1.314;2024-03-02T00:35:54;97703.12;;;-3.53;100.00
36454;BME280;22478;51.740;-1.314;2024-03-02T00:38:23;97700.27;;;-2.61;100.00
36454;BME280;22478;51.740;-1.314;2024-03-02T00:40:50;97709.89;;;-3.75;100.00
36454;BME280;22478;51.740;-1.314;2024-03-02T00:43:57;97704.35;;;-3.16;100.00
36454;BME280;22478;51.740;-1.314;2024-03-02T00:46:24;97702.53;;;-3.31;100.00
36454;BME280;22478;51.740;-1.314;2024-03-02T00:48:54;97694.11;;;-3.14;100.00
36454;BME280;22478;51.740;-1.314;2024-03-02T00:51:23;97693.02;;;-2.97;100.00
36454;BME280;22478;51.740;-1.314;2024-03-02T00:53:52;97685.20;;;-2.72;100.00
36454;BME280;22478;51.740;-1.314;2024-03-02T00:56:19;97690.59;;;-3.32;100.00
36454;BME280;22478;51.740;-1.314;2024-03-02T00:58:46;97685.14;;;-3.98;100.00
36454;BME280;22478;51.740;-1.314;2024-03-02T01:01:14;97688.13;;;-3.53;100.00
36454;BME280;22478;51.740;-1.314;2024-03-02T01:03:41;97687.51;;;-4.36;100.00
36454;BME280;22478;51.740;-1.314;2024-03-02T01:06:09;97688.61;;;-4.15;100.00
36454;BME280;22478;51.740;-1.314;2024-03-02T01:08:37;97676.18;;;-2.94;100.00
36454;BME280;22478;51.740;-1.314;2024-03-02T01:11:05;97685.98;;;-3.19;100.00
36454;BME280;22478;51.740;-1.314;2024-03-02T01:13:32;97676.17;;;-2.68;100.00
36454;BME280;22478;51.740;-1.314;2024-03-02T01:16:00;97676.20;;;-3.15;100.00
36454;BME280;22478;51.740;-1.314;2024-03-02T01:18:27;97677.25;;;-2.81;100.00
36454;BME280;22478;51.740;-1.314;2024-03-02T01:20:55;97681.14;;;-3.10;100.00
36454;BME280;22478;51.740;-1.314;2024-03-02T01:23:22;97675.53;;;-2.66;100.00
36454;BME280;22478;51.740;-1.314;2024-03-02T01:25:49;97668.35;;;-2.55;100.00
36454;BME280;22478;51.740;-1.314;2024-03-02T01:28:16;97663.01;;;-1.41;100.00
36454;BME280;22478;51.740;-1.314;2024-03-02T01:30:44;97662.62;;;-2.92;100.00
36454;BME280;22478;51.740;-1.314;2024-03-02T01:33:11;97657.70;;;-2.71;100.00
36454;BME280;22478;51.740;-1.314;2024-03-02T01:35:38;97654.30;;;-1.77;100.00
36454;BME280;22478;51.740;-1.314;2024-03-02T01:38:06;97654.53;;;-1.83;100.00
36454;BME280;22478;51.740;-1.314;2024-03-02T01:40:34;97656.86;;;-3.15;100.00
36454;BME280;22478;51.740;-1.314;2024-03-02T01:43:01;97660.46;;;-2.44;100.00
36454;BME280;22478;51.740;-1.314;2024-03-02T01:45:29;97651.51;;;-1.62;100.00
36454;BME280;22478;51.740;-1.314;2024-03-02T01:47:55;97651.33;;;-1.91;100.00
36454;BME280;22478;51.740;-1.314;2024-03-02T01:50:27;97651.23;;;-2.47;100.00
36454;BME280;22478;51.740;-1.314;2024-03-02T01:52:55;97641.15;;;-2.33;100.00
36454;BME280;22478;51.740;-1.314;2024-03-02T01:55:23;97641.44;;;-3.29;100.00
36454;BME280;22478;51.740;-1.314;2024-03-02T01:57:50;97636.90;;;-2.54;100.00
36454;BME280;22478;51.740;-1.314;2024-03-02T02:00:18;97635.20;;;-2.41;100.00
36454;BME280;22478;51.740;-1.314;2024-03-02T02:02:46;97636.64;;;-2.68;100.00
36454;BME280;22478;51.740;-1.314;2024-03-02T02:05:14;97632.45;;;-1.60;100.00
36454;BME280;22478;51.740;-1.314;2024-03-02T02:07:42;97634.88;;;-2.76;100.00
36454;BME280;22478;51.740;-1.314;2024-03-02T02:10:10;97636.21;;;-2.97;100.00
36454;BME280;22478;51.740;-1.314;2024-03-02T02:12:38;97630.75;;;-2.16;100.00
36454;BME280;22478;51.740;-1.314;2024-03-02T02:15:22;97626.18;;;-1.79;100.00
36454;BME280;22478;51.740;-1.314;2024-03-02T02:17:49;97624.58;;;-1.77;100.00
36454;BME280;22478;51.740;-1.314;2024-03-02T02:20:16;97621.02;;;-0.92;100.00
36454;BME280;22478;51.740;-1.314;2024-03-02T02:22:54;97618.84;;;-2.29;100.00
36454;BME280;22478;51.740;-1.314;2024-03-02T02:25:21;97620.74;;;-2.53;100.00
36454;BME280;22478;51.740;-1.314;2024-03-02T02:27:48;97618.33;;;-2.11;100.00
36454;BME280;22478;51.740;-1.314;2024-03-02T02:30:19;97620.54;;;-2.04;100.00
36454;BME280;22478;51.740;-1.314;2024-03-02T02:32:46;97620.09;;;-1.53;100.00
36454;BME280;22478;51.740;-1.314;2024-03-02T02:35:14;97622.04;;;-2.26;100.00
36454;BME280;22478;51.740;-1.314;2024-03-02T02:37:41;97619.67;;;-2.42;100.00
36454;BME280;22478;51.740;-1.314;2024-03-02T02:40:10;97616.88;;;-3.23;100.00
36454;BME280;22478;51.740;-1.314;2024-03-02T02:42:37;97616.76;;;-2.74;100.00
36454;BME280;22478;51.740;-1.314;2024-03-02T02:45:05;97615.43;;;-3.56;100.00
36454;BME280;22478;51.740;-1.314;2024-03-02T02:47:33;97612.34;;;-3.03;100.00
36454;BME280;22478;51.740;-1.314;2024-03-02T02:50:00;97610.96;;;-3.48;100.00
36454;BME280;22478;51.740;-1.314;2024-03-02T02:52:31;97614.63;;;-2.51;100.00
36454;BME280;22478;51.740;-1.314;2024-03-02T02:54:58;97619.57;;;-3.80;100.00
36454;BME280;22478;51.740;-1.314;2024-03-02T02:57:25;97606.39;;;-2.26;100.00
36454;BME280;22478;51.740;-1.314;2024-03-02T02:59:52;97607.51;;;-2.54;100.00
36454;BME280;22478;51.740;-1.314;2024-03-02T03:02:20;97607.80;;;-2.22;100.00
36454;BME280;22478;51.740;-1.314;2024-03-02T03:04:47;97604.56;;;-2.99;100.00
36454;BME280;22478;51.740;-1.314;2024-03-02T03:07:14;97601.60;;;-2.32;100.00
36454;BME280;22478;51.740;-1.314;2024-03-02T03:09:41;97602.42;;;-3.05;100.00
36454;BME280;22478;51.740;-1.314;2024-03-02T03:12:09;97597.40;;;-2.36;100.00
36454;BME280;22478;51.740;-1.314;2024-03-02T03:14:36;97590.53;;;-2.33;100.00
36454;BME280;22478;51.740;-1.314;2024-03-02T03:17:03;97584.86;;;-3.56;100.00
36454;BME280;22478;51.740;-1.314;2024-03-02T03:19:30;97575.19;;;-2.12;100.00
36454;BME280;22478;51.740;-1.314;2024-03-02T03:21:58;97575.42;;;-1.84;100.00
36454;BME280;22478;51.740;-1.314;2024-03-02T03:24:25;97580.11;;;-3.12;100.00
36454;BME280;22478;51.740;-1.314;2024-03-02T03:26:52;97574.68;;;-2.30;100.00
36454;BME280;22478;51.740;-1.314;2024-03-02T03:29:19;97577.04;;;-2.50;100.00
36454;BME280;22478;51.740;-1.314;2024-03-02T03:31:47;97573.23;;;-2.62;100.00
36454;BME280;22478;51.740;-1.314;2024-03-02T03:34:14;97577.68;;;-2.77;100.00
36454;BME280;22478;51.740;-1.314;2024-03-02T03:36:41;97576.14;;;-2.95;100.00
36454;BME280;22478;51.740;-1.314;2024-03-02T03:39:08;97570.88;;;-2.74;100.00
36454;BME280;22478;51.740;-1.314;2024-03-02T03:41:36;97556.81;;;-2.55;100.00
36454;BME280;22478;51.740;-1.314;2024-03-02T03:44:03;97558.91;;;-3.16;100.00
36454;BME280;22478;51.740;-1.314;2024-03-02T03:46:30;97546.95;;;-1.50;100.00
36454;BME280;22478;51.740;-1.314;2024-03-02T03:48:57;97538.19;;;-0.80;100.00
36454;BME280;22478;51.740;-1.314;2024-03-02T03:51:25;97538.33;;;-1.35;100.00
36454;BME280;22478;51.740;-1.314;2024-03-02T03:53:52;97539.99;;;-2.60;100.00
36454;BME280;22478;51.740;-1.314;2024-03-02T03:56:19;97532.97;;;-1.08;100.00
36454;BME280;22478;51.740;-1.314;2024-03-02T03:58:46;97529.38;;;-1.20;100.00
36454;BME280;22478;51.740;-1.314;2024-03-02T04:01:14;97524.50;;;-1.20;100.00
36454;BME280;22478;51.740;-1.314;2024-03-02T04:03:41;97515.59;;;-0.36;100.00
36454;BME280;22478;51.740;-1.314;2024-03-02T04:06:08;97520.28;;;-0.99;100.00
36454;BME280;22478;51.740;-1.314;2024-03-02T04:08:35;97518.31;;;-1.49;100.00
36454;BME280;22478;51.740;-1.314;2024-03-02T04:11:03;97515.46;;;-2.94;100.00
36454;BME280;22478;51.740;-1.314;2024-03-02T04:13:30;97513.69;;;-3.45;100.00
36454;BME280;22478;51.740;-1.314;2024-03-02T04:15:57;97504.04;;;-1.46;100.00
36454;BME280;22478;51.740;-1.314;2024-03-02T04:18:24;97506.54;;;-1.94;100.00
36454;BME280;22478;51.740;-1.314;2024-03-02T04:20:52;97506.04;;;-3.28;100.00
36454;BME280;22478;51.740;-1.314;2024-03-02T04:23:19;97502.36;;;-3.82;100.00
36454;BME280;22478;51.740;-1.314;2024-03-02T04:25:46;97495.90;;;-2.37;100.00
36454;BME280;22478;51.740;-1.314;2024-03-02T04:28:13;97492.47;;;-3.32;100.00
36454;BME280;22478;51.740;-1.314;2024-03-02T04:30:40;97492.16;;;-3.79;100.00
36454;BME280;22478;51.740;-1.314;2024-03-02T04:33:08;97498.61;;;-3.52;100.00
36454;BME280;22478;51.740;-1.314;2024-03-02T04:35:35;97501.71;;;-3.20;100.00
36454;BME280;22478;51.740;-1.314;2024-03-02T04:38:02;97494.14;;;-0.93;100.00
36454;BME280;22478;51.740;-1.314;2024-03-02T04:40:29;97496.70;;;-2.74;100.00
36454;BME280;22478;51.740;-1.314;2024-03-02T04:42:57;97491.64;;;-2.01;100.00
36454;BME280;22478;51.740;-1.314;2024-03-02T04:45:24;97496.03;;;-2.96;100.00
36454;BME280;22478;51.740;-1.314;2024-03-02T04:47:51;97489.04;;;-3.11;100.00
36454;BME280;22478;51.740;-1.314;2024-03-02T04:50:18;97482.36;;;-0.43;100.00
36454;BME280;22478;51.740;-1.314;2024-03-02T04:52:46;97481.33;;;-1.57;100.00
36454;BME280;22478;51.740;-1.314;2024-03-02T04:55:13;97468.50;;;-0.80;100.00
36454;BME280;22478;51.740;-1.314;2024-03-02T04:57:40;97466.93;;;-3.74;100.00
36454;BME280;22478;51.740;-1.314;2024-03-02T05:00:08;97450.23;;;-0.68;100.00
36454;BME280;22478;51.740;-1.314;2024-03-02T05:02:36;97460.92;;;-1.69;100.00
36454;BME280;22478;51.740;-1.314;2024-03-02T05:05:04;97453.87;;;-1.70;100.00
36454;BME280;22478;51.740;-1.314;2024-03-02T05:07:32;97448.35;;;-2.42;100.00
36454;BME280;22478;51.740;-1.314;2024-03-02T05:09:59;97454.22;;;-1.78;100.00
36454;BME280;22478;51.740;-1.314;2024-03-02T05:12:26;97455.44;;;-0.99;100.00
36454;BME280;22478;51.740;-1.314;2024-03-02T05:14:53;97452.61;;;-1.05;100.00
36454;BME280;22478;51.740;-1.314;2024-03-02T05:17:21;97455.04;;;-2.32;100.00
36454;BME280;22478;51.740;-1.314;2024-03-02T05:19:48;97451.24;;;-2.77;100.00
36454;BME280;22478;51.740;-1.314;2024-03-02T05:22:15;97450.07;;;-2.21;100.00
36454;BME280;22478;51.740;-1.314;2024-03-02T05:24:43;97442.14;;;-1.49;100.00
36454;BME280;22478;51.740;-1.314;2024-03-02T05:27:10;97446.08;;;-1.79;100.00
36454;BME280;22478;51.740;-1.314;2024-03-02T05:29:38;97439.10;;;-2.29;100.00
36454;BME280;22478;51.740;-1.314;2024-03-02T05:32:05;97442.09;;;-2.89;100.00
36454;BME280;22478;51.740;-1.314;2024-03-02T05:34:32;97438.08;;;-3.06;100.00
36454;BME280;22478;51.740;-1.314;2024-03-02T05:36:59;97445.45;;;-1.31;100.00
36454;BME280;22478;51.740;-1.314;2024-03-02T05:39:26;97427.83;;;-1.94;100.00
36454;BME280;22478;51.740;-1.314;2024-03-02T05:41:54;97425.44;;;-1.27;100.00
36454;BME280;22478;51.740;-1.314;2024-03-02T05:44:21;97415.15;;;-0.88;100.00
36454;BME280;22478;51.740;-1.314;2024-03-02T05:46:48;97421.52;;;-1.63;100.00
36454;BME280;22478;51.740;-1.314;2024-03-02T05:49:16;97410.94;;;-1.98;100.00
36454;BME280;22478;51.740;-1.314;2024-03-02T05:51:43;97405.20;;;-2.45;100.00
36454;BME280;22478;51.740;-1.314;2024-03-02T05:54:10;97402.64;;;-2.43;100.00
36454;BME280;22478;51.740;-1.314;2024-03-02T05:56:38;97409.32;;;-3.01;100.00
36454;BME280;22478;51.740;-1.314;2024-03-02T05:59:05;97411.44;;;-3.55;100.00
36454;BME280;22478;51.740;-1.314;2024-03-02T06:01:32;97405.10;;;-3.21;100.00
36454;BME280;22478;51.740;-1.314;2024-03-02T06:03:59;97403.63;;;-3.14;100.00
36454;BME280;22478;51.740;-1.314;2024-03-02T06:06:26;97401.45;;;-2.97;100.00
36454;BME280;22478;51.740;-1.314;2024-03-02T06:08:53;97394.15;;;-3.00;100.00
36454;BME280;22478;51.740;-1.314;2024-03-02T06:11:21;97388.30;;;-2.09;100.00
36454;BME280;22478;51.740;-1.314;2024-03-02T06:13:48;97387.35;;;-2.66;100.00
36454;BME280;22478;51.740;-1.314;2024-03-02T06:16:15;97388.58;;;-2.92;100.00
36454;BME280;22478;51.740;-1.314;2024-03-02T06:18:43;97386.80;;;-2.50;100.00
36454;BME280;22478;51.740;-1.314;2024-03-02T06:21:10;97382.06;;;-3.01;100.00
36454;BME280;22478;51.740;-1.314;2024-03-02T06:23:38;97386.39;;;-2.11;100.00
36454;BME280;22478;51.740;-1.314;2024-03-02T06:26:05;97391.93;;;-2.57;100.00
36454;BME280;22478;51.740;-1.314;2024-03-02T06:28:32;97387.54;;;-2.79;100.00
36454;BME280;22478;51.740;-1.314;2024-03-02T06:30:59;97391.26;;;-2.75;100.00
36454;BME280;22478;51.740;-1.314;2024-03-02T06:33:26;97387.77;;;-2.54;100.00
36454;BME280;22478;51.740;-1.314;2024-03-02T06:35:54;97388.33;;;-2.11;100.00
36454;BME280;22478;51.740;-1.314;2024-03-02T06:38:21;97386.75;;;-3.37;100.00
36454;BME280;22478;51.740;-1.314;2024-03-02T06:40:48;97389.39;;;-1.97;100.00
36454;BME280;22478;51.740;-1.314;2024-03-02T06:43:15;97396.70;;;-1.54;100.00
36454;BME280;22478;51.740;-1.314;2024-03-02T06:45:43;97396.91;;;-3.07;100.00
36454;BME280;22478;51.740;-1.314;2024-03-02T06:48:10;97394.48;;;-2.00;100.00
36454;BME280;22478;51.740;-1.314;2024-03-02T06:50:37;97387.12;;;-2.15;100.00
36454;BME280;22478;51.740;-1.314;2024-03-02T06:53:04;97396.32;;;-2.60;100.00
36454;BME280;22478;51.740;-1.314;2024-03-02T06:55:32;97393.57;;;-3.06;100.00
36454;BME280;22478;51.740;-1.314;2024-03-02T06:57:59;97403.10;;;-2.88;100.00
36454;BME280;22478;51.740;-1.314;2024-03-02T07:00:26;97393.20;;;-2.56;100.00
36454;BME280;22478;51.740;-1.314;2024-03-02T07:02:53;97399.20;;;-2.33;100.00
36454;BME280;22478;51.740;-1.314;2024-03-02T07:05:20;97395.92;;;-2.69;100.00
36454;BME280;22478;51.740;-1.314;2024-03-02T07:07:48;97401.04;;;-1.94;100.00
36454;BME280;22478;51.740;-1.314;2024-03-02T07:10:15;97416.37;;;-2.03;100.00
36454;BME280;22478;51.740;-1.314;2024-03-02T07:12:43;97415.02;;;-0.75;100.00
36454;BME280;22478;51.740;-1.314;2024-03-02T07:15:10;97423.90;;;-2.09;100.00
36454;BME280;22478;51.740;-1.314;2024-03-02T07:17:38;97419.93;;;-2.04;100.00
36454;BME280;22478;51.740;-1.314;2024-03-02T07:20:06;97426.15;;;-1.67;100.00
36454;BME280;22478;51.740;-1.314;2024-03-02T07:22:33;97422.96;;;-1.36;100.00
36454;BME280;22478;51.740;-1.314;2024-03-02T07:25:00;97424.39;;;-1.47;100.00
36454;BME280;22478;51.740;-1.314;2024-03-02T07:27:27;97425.69;;;-0.95;100.00
36454;BME280;22478;51.740;-1.314;2024-03-02T07:29:54;97420.93;;;-1.05;100.00
36454;BME280;22478;51.740;-1.314;2024-03-02T07:32:22;97423.33;;;-1.92;100.00
36454;BME280;22478;51.740;-1.314;2024-03-02T07:34:49;97420.41;;;-2.13;100.00
36454;BME280;22478;51.740;-1.314;2024-03-02T07:37:16;97415.87;;;-0.33;100.00
36454;BME280;22478;51.740;-1.314;2024-03-02T07:39:44;97426.95;;;-1.33;100.00
36454;BME280;22478;51.740;-1.314;2024-03-02T07:42:12;97430.49;;;-1.61;100.00
36454;BME280;22478;51.740;-1.314;2024-03-02T07:44:39;97432.30;;;-0.98;100.00
36454;BME280;22478;51.740;-1.314;2024-03-02T07:47:06;97431.99;;;0.44;100.00
36454;BME280;22478;51.740;-1.314;2024-03-02T07:49:33;97437.04;;;-0.27;100.00
36454;BME280;22478;51.740;-1.314;2024-03-02T07:52:00;97446.64;;;0.62;100.00
36454;BME280;22478;51.740;-1.314;2024-03-02T07:54:28;97459.43;;;-1.68;100.00
36454;BME280;22478;51.740;-1.314;2024-03-02T07:56:55;97468.94;;;-2.45;100.00
36454;BME280;22478;51.740;-1.314;2024-03-02T07:59:22;97472.97;;;-1.56;100.00
36454;BME280;22478;51.740;-1.314;2024-03-02T08:01:49;97479.92;;;-1.71;100.00
36454;BME280;22478;51.740;-1.314;2024-03-02T08:04:16;97482.13;;;-2.13;100.00
36454;BME280;22478;51.740;-1.314;2024-03-02T08:06:45;97484.58;;;-1.29;100.00
36454;BME280;22478;51.740;-1.314;2024-03-02T08:09:12;97492.38;;;-2.31;100.00
36454;BME280;22478;51.740;-1.314;2024-03-02T08:11:39;97505.37;;;-2.84;100.00
36454;BME280;22478;51.740;-1.314;2024-03-02T08:14:06;97511.17;;;-1.75;100.00
36454;BME280;22478;51.740;-1.314;2024-03-02T08:16:34;97517.07;;;-1.49;100.00
36454;BME280;22478;51.740;-1.314;2024-03-02T08:19:01;97519.86;;;-1.46;100.00
36454;BME280;22478;51.740;-1.314;2024-03-02T08:21:28;97530.81;;;-1.84;100.00
36454;BME280;22478;51.740;-1.314;2024-03-02T08:23:56;97532.56;;;-1.53;100.00
36454;BME280;22478;51.740;-1.314;2024-03-02T08:26:23;97542.38;;;-2.03;100.00
36454;BME280;22478;51.740;-1.314;2024-03-02T08:28:51;97544.52;;;-2.42;100.00
36454;BME280;22478;51.740;-1.314;2024-03-02T08:31:18;97545.34;;;-1.74;100.00
36454;BME280;22478;51.740;-1.314;2024-03-02T08:33:45;97553.40;;;-2.05;100.00
36454;BME280;22478;51.740;-1.314;2024-03-02T08:36:13;97557.80;;;-1.81;100.00
36454;BME280;22478;51.740;-1.314;2024-03-02T08:38:40;97569.85;;;-2.35;100.00
36454;BME280;22478;51.740;-1.314;2024-03-02T08:41:07;97576.26;;;-3.43;100.00
36454;BME280;22478;51.740;-1.314;2024-03-02T08:43:34;97572.58;;;-1.28;100.00
36454;BME280;22478;51.740;-1.314;2024-03-02T08:46:02;97570.31;;;-0.59;100.00
36454;BME280;22478;51.740;-1.314;2024-03-02T08:48:29;97574.56;;;-1.81;100.00
36454;BME280;22478;51.740;-1.314;2024-03-02T08:50:56;97582.86;;;-1.99;100.00
36454;BME280;22478;51.740;-1.314;2024-03-02T08:53:23;97583.55;;;-1.83;100.00
36454;BME280;22478;51.740;-1.314;2024-03-02T08:55:50;97580.45;;;-0.17;100.00
36454;BME280;22478;51.740;-1.314;2024-03-02T08:58:18;97580.22;;;-0.79;100.00
36454;BME280;22478;51.740;-1.314;2024-03-02T09:00:47;97586.01;;;-2.27;100.00
36454;BME280;22478;51.740;-1.314;2024-03-02T09:03:14;97594.07;;;-1.64;100.00
36454;BME280;22478;51.740;-1.314;2024-03-02T09:05:41;97598.56;;;-1.21;100.00
36454;BME280;22478;51.740;-1.314;2024-03-02T09:08:08;97598.55;;;-0.88;100.00
36454;BME280;22478;51.740;-1.314;2024-03-02T09:10:35;97607.86;;;-0.12;100.00
36454;BME280;22478;51.740;-1.314;2024-03-02T09:13:03;97607.45;;;-0.34;100.00
36454;BME280;22478;51.740;-1.314;2024-03-02T09:15:30;97604.63;;;-1.20;100.00
36454;BME280;22478;51.740;-1.314;2024-03-02T09:17:57;97608.04;;;-0.70;100.00
36454;BME280;22478;51.740;-1.314;2024-03-02T09:20:24;97607.84;;;0.70;100.00
36454;BME280;22478;51.740;-1.314;2024-03-02T09:22:52;97614.88;;;-1.65;100.00
36454;BME280;22478;51.740;-1.314;2024-03-02T09:25:19;97617.93;;;-0.61;100.00
36454;BME280;22478;51.740;-1.314;2024-03-02T09:27:46;97624.00;;;-1.66;100.00
36454;BME280;22478;51.740;-1.314;2024-03-02T09:30:14;97620.21;;;-0.22;100.00
36454;BME280;22478;51.740;-1.314;2024-03-02T09:32:41;97626.37;;;-0.69;100.00
36454;BME280;22478;51.740;-1.314;2024-03-02T09:35:08;97630.96;;;0.19;100.00
36454;BME280;22478;51.740;-1.314;2024-03-02T09:37:36;97631.87;;;-0.41;100.00
36454;BME280;22478;51.740;-1.314;2024-03-02T09:40:04;97637.56;;;-0.39;100.00
36454;BME280;22478;51.740;-1.314;2024-03-02T09:42:31;97641.71;;;0.44;100.00
36454;BME280;22478;51.740;-1.314;2024-03-02T09:44:58;97640.11;;;-1.14;100.00
36454;BME280;22478;51.740;-1.314;2024-03-02T09:47:25;97646.94;;;-0.30;100.00
36454;BME280;22478;51.740;-1.314;2024-03-02T09:49:53;97651.04;;;-1.03;100.00
36454;BME280;22478;51.740;-1.314;2024-03-02T09:52:20;97646.24;;;-1.08;100.00
36454;BME280;22478;51.740;-1.314;2024-03-02T09:54:47;97645.12;;;-0.06;100.00
36454;BME280;22478;51.740;-1.314;2024-03-02T09:57:15;97649.08;;;-1.61;100.00
36454;BME280;22478;51.740;-1.314;2024-03-02T09:59:43;97652.88;;;-1.13;100.00
36454;BME280;22478;51.740;-1.314;2024-03-02T10:02:10;97658.42;;;-1.30;100.00
36454;BME280;22478;51.740;-1.314;2024-03-02T10:04:38;97657.34;;;-0.59;100.00
36454;BME280;22478;51.740;-1.314;2024-03-02T10:07:14;97659.23;;;0.19;100.00
36454;BME280;22478;51.740;-1.314;2024-03-02T10:09:41;97658.95;;;-0.37;100.00
36454;BME280;22478;51.740;-1.314;2024-03-02T10:12:11;97660.16;;;-0.36;100.00
36454;BME280;22478;51.740;-1.314;2024-03-02T10:14:38;97665.97;;;-1.60;100.00
36454;BME280;22478;51.740;-1.314;2024-03-02T10:17:07;97664.03;;;-0.37;100.00
36454;BME280;22478;51.740;-1.314;2024-03-02T10:19:35;97669.74;;;0.17;100.00
36454;BME280;22478;51.740;-1.314;2024-03-02T10:22:03;97670.90;;;0.14;100.00
36454;BME280;22478;51.740;-1.314;2024-03-02T10:24:36;97667.32;;;-0.80;100.00
36454;BME280;22478;51.740;-1.314;2024-03-02T10:27:08;97669.47;;;-0.88;100.00
36454;BME280;22478;51.740;-1.314;2024-03-02T10:29:38;97668.40;;;-0.60;100.00
36454;BME280;22478;51.740;-1.314;2024-03-02T10:32:08;97670.54;;;0.79;100.00
36454;BME280;22478;51.740;-1.314;2024-03-02T10:34:36;97669.22;;;-2.10;100.00
36454;BME280;22478;51.740;-1.314;2024-03-02T10:37:03;97667.54;;;0.67;100.00
36454;BME280;22478;51.740;-1.314;2024-03-02T10:39:31;97671.12;;;-0.40;100.00
36454;BME280;22478;51.740;-1.314;2024-03-02T10:41:58;97676.83;;;-0.22;100.00
36454;BME280;22478;51.740;-1.314;2024-03-02T10:44:26;97682.73;;;0.60;100.00
36454;BME280;22478;51.740;-1.314;2024-03-02T10:46:55;97686.04;;;-0.65;100.00
36454;BME280;22478;51.740;-1.314;2024-03-02T10:49:23;97683.30;;;-1.84;100.00
36454;BME280;22478;51.740;-1.314;2024-03-02T10:51:51;97684.19;;;0.17;100.00
36454;BME280;22478;51.740;-1.314;2024-03-02T10:54:18;97681.56;;;-0.13;100.00
36454;BME280;22478;51.740;-1.314;2024-03-02T10:56:46;97675.71;;;0.15;100.00
36454;BME280;22478;51.740;-1.314;2024-03-02T10:59:19;97680.44;;;0.20;100.00
36454;BME280;22478;51.740;-1.314;2024-03-02T11:01:50;97670.62;;;1.62;100.00
36454;BME280;22478;51.740;-1.314;2024-03-02T11:04:18;97677.88;;;2.10;100.00
36454;BME280;22478;51.740;-1.314;2024-03-02T11:06:48;97687.76;;;0.51;100.00
36454;BME280;22478;51.740;-1.314;2024-03-02T11:09:20;97696.89;;;0.25;100.00
36454;BME280;22478;51.740;-1.314;2024-03-02T11:11:55;97701.80;;;1.10;100.00
36454;BME280;22478;51.740;-1.314;2024-03-02T11:14:24;97709.39;;;-1.05;100.00
36454;BME280;22478;51.740;-1.314;2024-03-02T11:16:52;97711.75;;;-0.22;100.00
36454;BME280;22478;51.740;-1.314;2024-03-02T11:19:21;97710.81;;;0.33;100.00
36454;BME280;22478;51.740;-1.314;2024-03-02T11:21:49;97714.22;;;0.29;100.00
36454;BME280;22478;51.740;-1.314;2024-03-02T11:24:32;97710.66;;;1.27;100.00
36454;BME280;22478;51.740;-1.314;2024-03-02T11:27:01;97705.66;;;0.92;100.00
36454;BME280;22478;51.740;-1.314;2024-03-02T11:29:45;97711.49;;;0.51;100.00
36454;BME280;22478;51.740;-1.314;2024-03-02T11:32:17;97710.37;;;-0.20;100.00
36454;BME280;22478;51.740;-1.314;2024-03-02T11:34:46;97707.70;;;0.69;100.00
36454;BME280;22478;51.740;-1.314;2024-03-02T11:37:13;97707.64;;;0.62;100.00
36454;BME280;22478;51.740;-1.314;2024-03-02T11:39:43;97700.91;;;-0.04;100.00
36454;BME280;22478;51.740;-1.314;2024-03-02T11:42:11;97694.70;;;2.73;100.00
36454;BME280;22478;51.740;-1.314;2024-03-02T11:44:39;97694.18;;;2.98;100.00
36454;BME280;22478;51.740;-1.314;2024-03-02T11:47:11;97692.87;;;3.40;100.00
36454;BME280;22478;51.740;-1.314;2024-03-02T11:49:40;97689.93;;;3.17;99.21
36454;BME280;22478;51.740;-1.314;2024-03-02T11:52:09;97695.58;;;3.72;96.21
36454;BME280;22478;51.740;-1.314;2024-03-02T11:54:38;97694.94;;;3.63;92.36
36454;BME280;22478;51.740;-1.314;2024-03-02T11:57:06;97704.84;;;2.29;92.87
36454;BME280;22478;51.740;-1.314;2024-03-02T11:59:33;97704.85;;;2.91;94.07
36454;BME280;22478;51.740;-1.314;2024-03-02T12:02:01;97699.41;;;3.08;90.96
36454;BME280;22478;51.740;-1.314;2024-03-02T12:04:29;97710.84;;;2.70;93.95
36454;BME280;22478;51.740;-1.314;2024-03-02T12:06:58;97706.61;;;1.54;95.60
36454;BME280;22478;51.740;-1.314;2024-03-02T12:09:26;97710.44;;;2.56;100.00
36454;BME280;22478;51.740;-1.314;2024-03-02T12:12:10;97714.58;;;2.63;99.58
36454;BME280;22478;51.740;-1.314;2024-03-02T12:14:38;97714.75;;;1.47;100.00
36454;BME280;22478;51.740;-1.314;2024-03-02T12:17:06;97721.96;;;0.70;100.00
36454;BME280;22478;51.740;-1.314;2024-03-02T12:19:33;97721.55;;;0.72;100.00
36454;BME280;22478;51.740;-1.314;2024-03-02T12:22:01;97724.44;;;0.62;100.00
36454;BME280;22478;51.740;-1.314;2024-03-02T12:24:29;97726.25;;;0.11;100.00
36454;BME280;22478;51.740;-1.314;2024-03-02T12:26:57;97731.33;;;1.15;100.00
36454;BME280;22478;51.740;-1.314;2024-03-02T12:29:25;97726.47;;;0.60;100.00
36454;BME280;22478;51.740;-1.314;2024-03-02T12:31:53;97729.86;;;0.61;100.00
36454;BME280;22478;51.740;-1.314;2024-03-02T12:34:21;97726.12;;;0.87;100.00
36454;BME280;22478;51.740;-1.314;2024-03-02T12:36:49;97719.47;;;1.37;100.00
36454;BME280;22478;51.740;-1.314;2024-03-02T12:39:18;97714.66;;;2.79;100.00
36454;BME280;22478;51.740;-1.314;2024-03-02T12:41:46;97715.34;;;-0.01;100.00
36454;BME280;22478;51.740;-1.314;2024-03-02T12:44:13;97716.53;;;1.77;100.00
36454;BME280;22478;51.740;-1.314;2024-03-02T12:46:40;97729.66;;;-0.13;100.00